createdAt,value
2022-09-06T00:01:43.005Z,50.80
2022-09-06T00:04:15.277Z,50.80
2022-09-06T00:06:43.502Z,50.86
2022-09-06T00:09:11.848Z,50.90
2022-09-06T00:11:39.542Z,50.91
2022-09-06T00:14:11.114Z,51.48
2022-09-06T00:16:41.506Z,51.70
2022-09-06T00:19:09.991Z,51.68
2022-09-06T00:21:38.082Z,51.78
2022-09-06T00:24:08.689Z,51.97
2022-09-06T00:26:37.647Z,51.88
2022-09-06T00:29:05.573Z,51.68
2022-09-06T00:31:34.829Z,51.58
2022-09-06T00:34:02.777Z,51.48
2022-09-06T00:36:33.359Z,51.54
2022-09-06T00:39:01.023Z,51.64
2022-09-06T00:41:28.785Z,51.84
2022-09-06T00:43:57.733Z,52.34
2022-09-06T00:46:28.070Z,52.21
2022-09-06T00:49:01.483Z,51.92
2022-09-06T00:51:34.401Z,51.89
2022-09-06T00:54:03.280Z,51.89
2022-09-06T00:56:34.905Z,52.06
2022-09-06T00:59:02.883Z,52.09
2022-09-06T01:01:31.391Z,52.35
2022-09-06T01:03:59.756Z,52.49
2022-09-06T01:06:39.435Z,52.81
2022-09-06T01:09:13.852Z,52.98
2022-09-06T01:11:48.183Z,53.00
2022-09-06T01:14:22.285Z,53.10
2022-09-06T01:16:54.467Z,52.73
2022-09-06T01:19:40.475Z,52.69
2022-09-06T01:22:14.398Z,52.88
2022-09-06T01:25:00.001Z,53.03
2022-09-06T01:27:42.289Z,53.16
2022-09-06T01:30:13.107Z,53.17
2022-09-06T01:32:51.010Z,53.11
2022-09-06T01:35:25.499Z,52.95
2022-09-06T01:37:53.739Z,52.83
2022-09-06T01:40:21.587Z,52.98
2022-09-06T01:42:50.496Z,52.84
2022-09-06T01:45:21.075Z,53.21
2022-09-06T01:47:54.765Z,53.19
2022-09-06T01:50:46.445Z,53.16
2022-09-06T01:53:22.335Z,53.78
2022-09-06T01:55:55.183Z,53.80
2022-09-06T01:58:39.157Z,53.56
2022-09-06T02:01:16.070Z,53.15
2022-09-06T02:03:49.429Z,53.51
2022-09-06T02:06:20.299Z,53.50
2022-09-06T02:08:50.076Z,53.40
2022-09-06T02:11:17.880Z,53.45
2022-09-06T02:13:49.323Z,53.51
2022-09-06T02:16:20.475Z,54.06
2022-09-06T02:18:51.212Z,54.11
2022-09-06T02:21:23.046Z,53.64
2022-09-06T02:23:53.128Z,53.48
2022-09-06T02:26:23.233Z,53.58
2022-09-06T02:28:53.982Z,53.58
2022-09-06T02:31:28.375Z,53.60
2022-09-06T02:33:58.939Z,53.88
2022-09-06T02:36:35.970Z,53.73
2022-09-06T02:39:04.819Z,53.68
2022-09-06T02:41:33.364Z,53.95
2022-09-06T02:44:01.392Z,53.78
2022-09-06T02:46:30.916Z,53.74
2022-09-06T02:48:58.747Z,53.75
2022-09-06T02:51:27.512Z,53.91
2022-09-06T02:53:55.470Z,53.95
2022-09-06T02:56:23.280Z,54.16
2022-09-06T02:58:51.393Z,54.60
2022-09-06T03:01:19.243Z,54.47
2022-09-06T03:03:49.422Z,54.71
2022-09-06T03:06:18.345Z,54.58
2022-09-06T03:08:46.086Z,54.28
2022-09-06T03:11:14.620Z,54.28
2022-09-06T03:13:42.373Z,54.47
2022-09-06T03:16:10.054Z,54.51
2022-09-06T03:18:37.908Z,55.01
2022-09-06T03:21:06.548Z,55.52
2022-09-06T03:23:34.499Z,55.21
2022-09-06T03:26:02.258Z,54.68
2022-09-06T03:28:32.537Z,55.02
2022-09-06T03:31:00.483Z,55.24
2022-09-06T03:33:28.390Z,55.25
2022-09-06T03:35:57.005Z,54.71
2022-09-06T03:38:25.930Z,54.73
2022-09-06T03:40:54.328Z,54.79
2022-09-06T03:43:25.809Z,55.33
2022-09-06T03:45:54.440Z,55.79
2022-09-06T03:48:25.490Z,55.62
2022-09-06T03:50:57.913Z,55.29
2022-09-06T03:53:26.779Z,55.06
2022-09-06T03:55:57.180Z,55.16
2022-09-06T03:58:25.625Z,55.51
2022-09-06T04:01:00.424Z,55.60
2022-09-06T04:03:28.060Z,55.25
2022-09-06T04:05:55.760Z,55.61
2022-09-06T04:08:23.617Z,56.00
2022-09-06T04:10:52.865Z,55.94
2022-09-06T04:13:21.250Z,55.85
2022-09-06T04:15:49.631Z,55.68
2022-09-06T04:18:17.324Z,56.00
2022-09-06T04:20:48.257Z,55.51
2022-09-06T04:23:16.048Z,55.31
2022-09-06T04:25:48.714Z,55.42
2022-09-06T04:28:17.946Z,55.93
2022-09-06T04:30:46.309Z,55.46
2022-09-06T04:33:14.679Z,55.30
2022-09-06T04:35:42.810Z,55.67
2022-09-06T04:38:10.630Z,55.92
2022-09-06T04:40:40.748Z,55.61
2022-09-06T04:43:08.726Z,55.55
2022-09-06T04:45:36.459Z,55.62
2022-09-06T04:48:04.552Z,55.82
2022-09-06T04:50:33.209Z,56.19
2022-09-06T04:53:05.973Z,55.69
2022-09-06T04:55:34.182Z,55.64
2022-09-06T04:58:02.963Z,55.91
2022-09-06T05:00:33.974Z,55.64
2022-09-06T05:03:01.731Z,56.05
2022-09-06T05:05:31.954Z,56.06
2022-09-06T05:07:59.953Z,56.81
2022-09-06T05:10:31.419Z,56.83
2022-09-06T05:12:59.457Z,56.06
2022-09-06T05:15:27.627Z,56.12
2022-09-06T05:18:02.704Z,56.17
2022-09-06T05:20:32.753Z,56.17
2022-09-06T05:23:01.144Z,56.02
2022-09-06T05:25:28.804Z,55.72
2022-09-06T05:27:59.357Z,55.72
2022-09-06T05:30:27.142Z,55.24
2022-09-06T05:32:55.537Z,54.81
2022-09-06T05:35:23.081Z,54.72
2022-09-06T05:37:50.745Z,55.23
2022-09-06T05:40:18.573Z,55.48
2022-09-06T05:42:46.171Z,54.96
2022-09-06T05:45:13.926Z,54.10
2022-09-06T05:47:42.739Z,53.49
2022-09-06T05:50:10.593Z,53.41
2022-09-06T05:52:39.211Z,53.88
2022-09-06T05:55:07.696Z,53.92
2022-09-06T05:57:35.427Z,53.90
2022-09-06T06:00:04.377Z,53.99
2022-09-06T06:02:40.104Z,53.99
2022-09-06T06:05:08.444Z,54.00
2022-09-06T06:07:37.875Z,53.86
2022-09-06T06:10:06.384Z,53.96
2022-09-06T06:12:34.074Z,53.89
2022-09-06T06:15:01.703Z,53.86
2022-09-06T06:17:30.045Z,53.75
2022-09-06T06:19:57.913Z,53.62
2022-09-06T06:22:25.505Z,53.35
2022-09-06T06:24:53.631Z,53.24
2022-09-06T06:27:21.283Z,52.64
2022-09-06T06:29:50.033Z,52.73
2022-09-06T06:32:17.714Z,51.46
2022-09-06T06:34:46.229Z,50.22
2022-09-06T06:37:13.837Z,49.73
2022-09-06T06:39:41.489Z,49.50
2022-09-06T06:42:09.431Z,50.44
2022-09-06T06:44:52.602Z,49.90
2022-09-06T06:47:20.525Z,50.43
2022-09-06T06:49:48.617Z,49.73
2022-09-06T06:52:16.400Z,50.51
2022-09-06T06:54:47.431Z,50.14
2022-09-06T06:57:16.397Z,50.14
2022-09-06T06:59:45.046Z,49.02
2022-09-06T07:02:15.479Z,48.69
2022-09-06T07:04:43.238Z,47.16
2022-09-06T07:12:47.947Z,48.67
2022-09-06T07:15:15.922Z,48.67
2022-09-06T07:17:43.936Z,48.80
2022-09-06T07:22:44.321Z,49.01
2022-09-06T07:25:14.497Z,48.95
2022-09-06T07:30:19.767Z,48.83
2022-09-06T07:32:47.781Z,48.80
2022-09-06T07:35:15.789Z,48.65
2022-09-06T07:37:43.462Z,48.00
2022-09-06T07:40:11.843Z,48.36
2022-09-06T07:42:39.765Z,48.51
2022-09-06T07:45:10.189Z,48.28
2022-09-06T07:53:16.708Z,47.49
2022-09-06T07:55:52.048Z,47.75
2022-09-06T07:58:20.127Z,47.54
2022-09-06T08:00:48.225Z,47.40
2022-09-06T08:03:15.965Z,47.26
2022-09-06T08:11:19.988Z,46.49
2022-09-06T08:13:49.966Z,45.52
2022-09-06T08:16:17.992Z,45.86
2022-09-06T08:18:50.125Z,44.54
2022-09-06T08:21:17.957Z,44.48
2022-09-06T08:23:48.119Z,43.53
2022-09-06T08:26:16.708Z,42.39
2022-09-06T08:28:44.915Z,40.40
2022-09-06T08:31:15.367Z,39.46
2022-09-06T08:33:43.553Z,36.86
2022-09-06T08:36:11.800Z,37.16
2022-09-06T08:38:40.282Z,36.50
2022-09-06T08:41:09.794Z,35.50
2022-09-06T08:43:38.358Z,34.14
2022-09-06T08:46:08.469Z,27.08
2022-09-06T08:48:39.151Z,31.07
2022-09-06T08:51:19.364Z,29.29
2022-09-06T08:53:47.237Z,28.40
2022-09-06T08:56:19.614Z,27.12
2022-09-06T08:58:56.830Z,23.74
2022-09-06T09:01:31.062Z,25.61
2022-09-06T09:04:03.054Z,22.98
2022-09-06T09:06:33.521Z,21.85
2022-09-06T09:09:04.142Z,20.82
2022-09-06T09:11:35.425Z,26.17
2022-09-06T09:14:05.499Z,27.16
2022-09-06T09:16:36.093Z,25.55
2022-09-06T09:19:05.288Z,27.75
2022-09-06T09:21:36.292Z,22.45
2022-09-06T09:24:08.517Z,28.43
2022-09-06T09:26:40.181Z,29.24
2022-09-06T09:29:12.243Z,30.44
2022-09-06T09:31:41.027Z,30.89
2022-09-06T09:34:13.855Z,25.30
2022-09-06T09:36:41.485Z,21.97
2022-09-06T09:39:10.835Z,26.92
2022-09-06T09:41:41.063Z,31.92
2022-09-06T09:44:17.295Z,29.48
2022-09-06T09:46:45.458Z,28.19
2022-09-06T09:49:28.332Z,30.92
2022-09-06T09:52:05.230Z,34.28
2022-09-06T09:54:35.875Z,33.77
2022-09-06T09:57:11.995Z,33.23
2022-09-06T09:59:43.153Z,33.28
2022-09-06T10:02:18.671Z,33.63
2022-09-06T10:04:50.901Z,26.58
2022-09-06T10:07:21.201Z,30.93
2022-09-06T10:09:50.384Z,33.74
2022-09-06T10:12:19.009Z,32.65
2022-09-06T10:14:47.936Z,32.85
2022-09-06T10:17:19.858Z,33.15
2022-09-06T10:19:48.376Z,32.88
2022-09-06T10:22:31.222Z,31.33
2022-09-06T10:25:14.073Z,33.64
2022-09-06T10:28:01.598Z,33.69
2022-09-06T10:30:39.763Z,33.72
2022-09-06T10:33:14.762Z,31.67
2022-09-06T10:35:42.541Z,29.73
2022-09-06T10:38:19.564Z,30.01
2022-09-06T10:40:52.010Z,26.88
2022-09-06T10:43:20.492Z,33.71
2022-09-06T10:45:53.971Z,34.67
2022-09-06T10:48:24.523Z,34.09
2022-09-06T10:50:55.000Z,34.30
2022-09-06T10:53:38.028Z,34.24
2022-09-06T10:56:08.414Z,34.24
2022-09-06T11:01:36.276Z,27.61
2022-09-06T11:04:12.472Z,28.94
2022-09-06T11:06:44.184Z,28.41
2022-09-06T11:09:14.180Z,28.51
2022-09-06T11:11:44.122Z,34.82
2022-09-06T11:14:13.131Z,33.90
2022-09-06T11:16:44.850Z,28.89
2022-09-06T11:19:17.180Z,33.71
2022-09-06T11:22:12.238Z,31.17
2022-09-06T11:24:48.750Z,33.59
2022-09-06T11:27:22.020Z,33.04
2022-09-06T11:29:55.862Z,33.97
2022-09-06T11:32:32.853Z,33.00
2022-09-06T11:35:01.500Z,32.74
2022-09-06T11:37:32.197Z,31.97
2022-09-06T11:43:14.808Z,31.34
2022-09-06T11:45:45.243Z,32.59
2022-09-06T11:48:37.185Z,32.02
2022-09-06T11:51:06.603Z,29.18
2022-09-06T11:53:35.963Z,31.66
2022-09-06T11:56:12.630Z,29.78
2022-09-06T11:58:47.829Z,29.86
2022-09-06T12:01:36.487Z,28.79
2022-09-06T12:04:07.374Z,30.53
2022-09-06T12:06:39.182Z,29.98
2022-09-06T12:09:25.050Z,29.12
2022-09-06T12:11:53.236Z,30.63
2022-09-06T12:14:28.920Z,30.19
2022-09-06T12:17:27.481Z,30.03
2022-09-06T12:19:59.120Z,31.10
2022-09-06T12:22:45.121Z,30.24
2022-09-06T12:25:26.926Z,31.33
2022-09-06T12:27:56.368Z,31.42
2022-09-06T12:30:33.913Z,30.97
2022-09-06T12:33:02.546Z,31.27
2022-09-06T12:38:24.765Z,30.10
2022-09-06T12:40:57.731Z,29.66
2022-09-06T12:43:26.676Z,29.84
2022-09-06T12:45:54.426Z,29.76
2022-09-06T12:48:31.360Z,28.90
2022-09-06T12:51:03.143Z,28.46
2022-09-06T12:53:34.498Z,30.08
2022-09-06T12:56:06.268Z,29.32
2022-09-06T12:58:34.479Z,30.10
2022-09-06T13:01:06.287Z,29.25
2022-09-06T13:03:38.173Z,30.01
2022-09-06T13:06:06.236Z,30.40
2022-09-06T13:08:36.331Z,30.88
2022-09-06T13:11:08.424Z,30.18
2022-09-06T13:13:36.739Z,31.00
2022-09-06T13:16:04.690Z,30.60
2022-09-06T13:18:34.829Z,30.84
2022-09-06T13:21:04.323Z,30.79
2022-09-06T13:23:41.668Z,31.29
2022-09-06T13:26:09.582Z,30.61
2022-09-06T13:41:09.681Z,30.62
2022-09-06T13:43:46.314Z,30.66
2022-09-06T13:46:18.544Z,30.37
2022-09-06T13:48:50.723Z,30.43
2022-09-06T13:51:23.551Z,29.98
2022-09-06T13:54:10.866Z,29.78
2022-09-06T13:56:45.086Z,29.70
2022-09-06T13:59:18.315Z,29.84
2022-09-06T14:01:56.140Z,29.79
2022-09-06T14:04:28.262Z,30.32
2022-09-06T14:07:03.243Z,29.96
2022-09-06T14:09:35.762Z,30.61
2022-09-06T14:12:09.416Z,30.68
2022-09-06T14:14:41.585Z,30.03
2022-09-06T14:17:13.637Z,29.66
2022-09-06T14:19:46.307Z,30.08
2022-09-06T14:22:18.356Z,29.35
2022-09-06T14:24:51.329Z,30.59
2022-09-06T14:27:23.268Z,30.17
2022-09-06T14:29:55.975Z,30.14
2022-09-06T14:32:28.136Z,30.02
2022-09-06T14:35:02.292Z,30.06
2022-09-06T14:37:35.142Z,29.82
2022-09-06T14:40:08.936Z,30.52
2022-09-06T14:42:46.598Z,30.53
2022-09-06T14:45:22.440Z,30.18
2022-09-06T14:47:54.374Z,30.51
2022-09-06T14:50:26.895Z,31.29
2022-09-06T14:52:59.528Z,30.58
2022-09-06T14:55:35.174Z,31.44
2022-09-06T14:58:07.204Z,30.80
2022-09-06T15:00:39.238Z,30.86
2022-09-06T15:03:11.216Z,31.00
2022-09-06T15:05:44.876Z,30.92
2022-09-06T15:08:17.049Z,30.31
2022-09-06T15:10:58.073Z,30.42
2022-09-06T15:13:30.641Z,30.85
2022-09-06T15:16:04.188Z,30.52
2022-09-06T15:18:36.537Z,31.09
2022-09-06T15:21:16.335Z,31.10
2022-09-06T15:23:48.672Z,31.07
2022-09-06T15:26:21.798Z,31.84
2022-09-06T15:28:53.898Z,31.88
2022-09-06T15:31:26.502Z,31.68
2022-09-06T15:33:59.450Z,31.54
2022-09-06T15:36:40.914Z,32.29
2022-09-06T15:39:13.527Z,31.74
2022-09-06T15:41:46.183Z,31.92
2022-09-06T15:44:20.897Z,32.27
2022-09-06T15:46:55.051Z,32.26
2022-09-06T15:49:28.516Z,32.09
2022-09-06T15:52:03.018Z,33.99
2022-09-06T15:54:52.620Z,32.91
2022-09-06T15:57:24.680Z,34.20
2022-09-06T15:59:56.785Z,34.59
2022-09-06T16:02:28.680Z,34.72
2022-09-06T16:05:01.385Z,34.19
2022-09-06T16:07:33.262Z,34.51
2022-09-06T16:10:05.523Z,35.17
2022-09-06T16:12:37.456Z,35.08
2022-09-06T16:15:11.502Z,35.19
2022-09-06T16:17:43.667Z,35.38
2022-09-06T16:20:16.187Z,35.47
2022-09-06T16:22:49.757Z,35.57
2022-09-06T16:25:22.194Z,35.93
2022-09-06T16:27:54.094Z,36.75
2022-09-06T16:30:26.116Z,36.20
2022-09-06T16:32:58.558Z,37.48
2022-09-06T16:35:31.267Z,37.17
2022-09-06T16:38:07.273Z,37.64
2022-09-06T16:40:47.098Z,37.70
2022-09-06T16:43:19.657Z,38.82
2022-09-06T16:46:01.923Z,39.18
2022-09-06T16:48:38.497Z,40.48
2022-09-06T16:51:15.487Z,39.63
2022-09-06T16:53:49.846Z,40.94
2022-09-06T16:56:24.435Z,41.40
2022-09-06T16:58:59.049Z,41.16
2022-09-06T17:01:33.709Z,42.11
2022-09-06T17:04:07.059Z,42.13
2022-09-06T17:06:44.941Z,42.66
2022-09-06T17:09:19.496Z,43.28
2022-09-06T17:11:52.631Z,43.17
2022-09-06T17:14:24.630Z,43.28
2022-09-06T17:17:05.884Z,44.31
2022-09-06T17:19:40.913Z,45.05
2022-09-06T17:22:14.238Z,45.30
2022-09-06T17:24:47.751Z,45.83
2022-09-06T17:27:20.113Z,45.97
2022-09-06T17:29:52.544Z,42.79
2022-09-06T17:32:24.877Z,45.62
2022-09-06T17:34:57.116Z,47.41
2022-09-06T17:37:29.929Z,47.09
2022-09-06T17:40:02.449Z,47.20
2022-09-06T17:42:35.324Z,47.93
2022-09-06T17:45:10.931Z,48.85
2022-09-06T17:47:43.596Z,48.76
2022-09-06T17:50:15.962Z,49.06
2022-09-06T17:52:51.318Z,49.58
2022-09-06T17:55:24.376Z,50.11
2022-09-06T17:57:56.541Z,50.72
2022-09-06T18:00:32.121Z,51.27
2022-09-06T18:03:04.499Z,51.05
2022-09-06T18:05:40.544Z,51.33
2022-09-06T18:08:13.314Z,51.50
2022-09-06T18:10:45.654Z,51.60
2022-09-06T18:13:17.892Z,51.58
2022-09-06T18:15:50.445Z,51.51
2022-09-06T18:18:22.913Z,52.82
2022-09-06T18:20:55.289Z,53.23
2022-09-06T18:23:31.785Z,53.84
2022-09-06T18:26:06.587Z,53.91
2022-09-06T18:28:40.291Z,54.03
2022-09-06T18:31:15.797Z,54.23
2022-09-06T18:33:47.943Z,53.55
2022-09-06T18:36:21.212Z,53.27
2022-09-06T18:38:53.959Z,53.86
2022-09-06T18:41:44.203Z,54.27
2022-09-06T18:44:17.090Z,54.51
2022-09-06T18:46:50.062Z,54.43
2022-09-06T18:49:22.064Z,54.51
2022-09-06T18:51:54.841Z,54.55
2022-09-06T18:54:28.180Z,54.03
2022-09-06T18:57:03.784Z,53.97
2022-09-06T18:59:36.468Z,54.21
2022-09-06T19:02:09.245Z,54.34
2022-09-06T19:04:41.713Z,54.60
2022-09-06T19:07:13.953Z,54.33
2022-09-06T19:09:51.146Z,54.62
2022-09-06T19:12:23.259Z,54.34
2022-09-06T19:14:55.213Z,54.49
2022-09-06T19:17:30.249Z,55.13
2022-09-06T19:20:04.627Z,54.95
2022-09-06T19:22:40.303Z,54.95
2022-09-06T19:25:12.676Z,55.18
2022-09-06T19:27:48.651Z,55.07
2022-09-06T19:30:20.984Z,55.03
2022-09-06T19:32:53.491Z,55.44
2022-09-06T19:35:25.632Z,56.45
2022-09-06T19:37:58.023Z,57.06
2022-09-06T19:40:32.298Z,56.39
2022-09-06T19:43:05.070Z,56.08
2022-09-06T19:45:40.790Z,56.30
2022-09-06T19:48:13.070Z,56.15
2022-09-06T19:50:45.295Z,56.05
2022-09-06T19:53:17.420Z,56.18
2022-09-06T19:55:49.423Z,56.56
2022-09-06T19:58:21.494Z,56.93
2022-09-06T20:00:54.072Z,56.81
2022-09-06T20:03:26.069Z,57.12
2022-09-06T20:06:01.269Z,57.44
2022-09-06T20:08:34.990Z,57.49
2022-09-06T20:11:09.242Z,57.85
2022-09-06T20:13:42.998Z,58.27
2022-09-06T20:16:16.156Z,58.32
2022-09-06T20:18:49.158Z,59.26
2022-09-06T20:21:21.252Z,58.68
2022-09-06T20:23:55.287Z,58.79
2022-09-06T20:26:31.363Z,58.56
2022-09-06T20:29:07.511Z,58.81
2022-09-06T20:31:43.993Z,58.69
2022-09-06T20:34:19.514Z,58.26
2022-09-06T20:36:51.519Z,58.83
2022-09-06T20:39:24.382Z,59.32
2022-09-06T20:41:56.621Z,59.45
2022-09-06T20:44:28.694Z,59.77
2022-09-06T20:47:02.395Z,59.92
2022-09-06T20:49:37.188Z,60.06
2022-09-06T20:52:09.450Z,60.56
2022-09-06T20:54:41.497Z,60.63
2022-09-06T20:57:13.698Z,61.01
2022-09-06T20:59:47.425Z,61.45
2022-09-06T21:02:19.703Z,61.64
2022-09-06T21:04:52.462Z,61.85
2022-09-06T21:07:25.018Z,61.82
2022-09-06T21:09:57.404Z,62.27
2022-09-06T21:12:29.840Z,62.32
2022-09-06T21:15:03.259Z,62.49
2022-09-06T21:17:35.979Z,62.72
2022-09-06T21:20:09.897Z,62.85
2022-09-06T21:22:42.457Z,62.01
2022-09-06T21:25:14.515Z,62.83
2022-09-06T21:27:46.528Z,62.94
2022-09-06T21:30:19.078Z,63.28
2022-09-06T21:32:54.033Z,63.34
2022-09-06T21:35:26.051Z,63.50
2022-09-06T21:37:58.029Z,63.99
2022-09-06T21:40:30.242Z,64.12
2022-09-06T21:43:03.343Z,63.99
2022-09-06T21:45:41.078Z,64.32
2022-09-06T21:48:15.901Z,64.26
2022-09-06T21:50:49.710Z,64.42
2022-09-06T21:53:24.133Z,64.14
2022-09-06T21:56:02.188Z,64.66
2022-09-06T21:58:35.625Z,64.39
2022-09-06T22:01:08.952Z,64.54
2022-09-06T22:03:42.055Z,64.67
2022-09-06T22:06:17.013Z,64.23
2022-09-06T22:08:50.388Z,64.41
2022-09-06T22:11:25.585Z,64.43
2022-09-06T22:14:02.003Z,64.44
2022-09-06T22:16:37.527Z,64.61
2022-09-06T22:19:11.610Z,64.55
2022-09-06T22:21:44.353Z,64.57
2022-09-06T22:24:21.587Z,64.52
2022-09-06T22:26:54.409Z,64.53
2022-09-06T22:29:27.817Z,64.25
2022-09-06T22:32:00.371Z,64.32
2022-09-06T22:34:33.896Z,64.40
2022-09-06T22:37:07.196Z,64.23
2022-09-06T22:39:42.615Z,64.36
2022-09-06T22:42:16.178Z,64.29
2022-09-06T22:44:50.193Z,64.44
2022-09-06T22:47:23.937Z,65.00
2022-09-06T22:49:59.509Z,65.22
2022-09-06T22:52:34.378Z,65.61
2022-09-06T22:55:10.118Z,65.73
2022-09-06T22:57:42.805Z,65.77
2022-09-06T23:00:18.867Z,66.12
2022-09-06T23:02:54.134Z,66.04
2022-09-06T23:05:27.300Z,66.09
2022-09-06T23:08:01.873Z,66.11
2022-09-06T23:10:40.241Z,65.80
2022-09-06T23:13:17.927Z,66.16
2022-09-06T23:15:50.768Z,66.65
2022-09-06T23:18:24.227Z,66.86
2022-09-06T23:20:57.513Z,66.88
2022-09-06T23:23:32.232Z,66.94
2022-09-06T23:26:13.221Z,66.79
2022-09-06T23:28:46.943Z,66.94
2022-09-06T23:31:21.229Z,67.08
2022-09-06T23:33:57.139Z,67.27
2022-09-06T23:36:37.473Z,67.21
2022-09-06T23:39:13.025Z,67.52
2022-09-06T23:41:46.310Z,67.19
2022-09-06T23:44:18.807Z,67.29
2022-09-06T23:46:52.322Z,67.66
2022-09-06T23:49:28.182Z,67.82
2022-09-06T23:52:00.867Z,68.09
2022-09-06T23:54:37.235Z,68.04
2022-09-06T23:57:10.173Z,67.97
2022-09-06T23:59:42.836Z,68.00
